Time;durP1;ratioP1;P1;durP2;ratioP2;P2;SDS_P1;SDS_P2;PMS_P1;PMS_P2;Temp;Humidity;BMP_temperature;BMP_pressure;BME280_temperature;BME280_humidity;BME280_pressure;Samples;Min_cycle;Max_cycle;Signal;HPM_P1;HPM_P2
2023/08/08 00:02:18;;;;;;;2.42;0.98;;;;;;;21.14;61.20;100156.66;4878609;29;20514;-66
2023/08/08 00:04:47;;;;;;;2.55;0.80;;;;;;;21.14;61.21;100162.06;4879026;29;20137;-66
2023/08/08 00:07:15;;;;;;;2.25;0.93;;;;;;;21.12;61.09;100164.06;4878954;29;20139;-66
2023/08/08 00:09:45;;;;;;;3.35;0.90;;;;;;;21.09;61.07;100159.00;4878631;29;20051;-67
2023/08/08 00:12:13;;;;;;;2.10;0.90;;;;;;;21.08;61.00;100170.00;4878333;29;20408;-65
2023/08/08 00:14:42;;;;;;;2.55;0.80;;;;;;;21.05;60.82;100176.59;4878445;29;20136;-66
2023/08/08 00:17:10;;;;;;;1.55;0.88;;;;;;;21.03;60.98;100170.47;4878707;29;20061;-66
2023/08/08 00:19:38;;;;;;;2.13;0.90;;;;;;;21.02;60.85;100174.19;4878311;29;20063;-66
2023/08/08 00:22:07;;;;;;;1.85;0.80;;;;;;;21.02;61.27;100176.91;4878545;29;20112;-66
2023/08/08 00:24:35;;;;;;;2.03;0.95;;;;;;;21.01;60.87;100180.63;4878162;29;20105;-66
2023/08/08 00:27:05;;;;;;;2.00;0.73;;;;;;;21.00;61.17;100173.50;4878216;29;20057;-66
2023/08/08 00:29:33;;;;;;;1.30;0.80;;;;;;;20.98;61.02;100172.84;4878513;29;20147;-66
2023/08/08 00:32:01;;;;;;;1.95;0.80;;;;;;;20.95;60.84;100175.88;4878245;29;20080;-66
2023/08/08 00:34:29;;;;;;;1.88;0.82;;;;;;;20.94;61.04;100185.03;4878124;29;20439;-66
2023/08/08 00:36:57;;;;;;;2.33;0.82;;;;;;;20.92;60.81;100187.03;4878433;29;20075;-66
2023/08/08 00:39:26;;;;;;;2.53;0.80;;;;;;;20.94;61.30;100195.88;4876711;29;20110;-66
2023/08/08 00:41:54;;;;;;;2.72;0.90;;;;;;;20.94;61.23;100195.88;4878011;29;20052;-67
2023/08/08 00:44:24;;;;;;;2.42;0.70;;;;;;;20.94;61.25;100204.00;4878042;29;20066;-67
2023/08/08 00:46:52;;;;;;;1.95;1.10;;;;;;;20.95;61.20;100202.13;4877426;29;20049;-67
2023/08/08 00:49:20;;;;;;;2.60;1.05;;;;;;;20.96;61.45;100203.84;4877921;29;20499;-66
2023/08/08 00:51:49;;;;;;;3.60;0.90;;;;;;;20.96;61.04;100201.97;4878158;29;20057;-66
2023/08/08 00:54:21;;;;;;;1.92;0.80;;;;;;;20.97;61.21;100205.53;4877738;29;20056;-66
2023/08/08 00:56:49;;;;;;;1.98;0.52;;;;;;;20.98;61.41;100208.09;4877913;29;20053;-66
2023/08/08 00:59:20;;;;;;;1.27;0.70;;;;;;;21.00;61.31;100205.22;4877463;29;20093;-66
2023/08/08 01:01:49;;;;;;;1.80;0.70;;;;;;;21.01;61.06;100212.31;4877932;29;20136;-66
2023/08/08 01:04:18;;;;;;;1.63;0.57;;;;;;;21.01;61.17;100196.91;4877540;29;20049;-66
2023/08/08 01:06:56;;;;;;;1.52;0.80;;;;;;;21.01;61.25;100212.31;4877527;29;20079;-66
2023/08/08 01:09:30;;;;;;;1.88;0.60;;;;;;;20.99;61.04;100214.34;4877792;29;20096;-67
2023/08/08 01:12:00;;;;;;;1.55;0.80;;;;;;;20.96;60.86;100215.53;4876333;29;20069;-67
2023/08/08 01:14:32;;;;;;;1.80;0.70;;;;;;;20.92;60.96;100208.72;4877526;29;20049;-66
2023/08/08 01:17:03;;;;;;;1.27;0.63;;;;;;;20.91;60.93;100217.00;4877407;29;20547;-66
2023/08/08 01:19:34;;;;;;;2.22;0.75;;;;;;;20.89;60.75;100219.03;4877715;29;20045;-66
2023/08/08 01:22:06;;;;;;;0.95;0.50;;;;;;;20.86;60.69;100212.09;4877413;29;20418;-67
2023/08/08 01:24:37;;;;;;;2.42;0.70;;;;;;;20.83;61.11;100209.66;4877389;29;20080;-67
2023/08/08 01:27:06;;;;;;;2.47;0.75;;;;;;;20.85;60.95;100213.09;4877292;29;20067;-67
2023/08/08 01:29:39;;;;;;;1.23;0.63;;;;;;;20.83;60.67;100207.81;4877502;29;20082;-66
2023/08/08 01:32:08;;;;;;;2.28;0.60;;;;;;;20.83;60.81;100204.25;4877344;29;20096;-66
2023/08/08 01:34:37;;;;;;;2.08;0.70;;;;;;;20.83;61.08;100209.66;4877097;29;20135;-67
2023/08/08 01:37:12;;;;;;;2.15;0.73;;;;;;;20.82;60.95;100203.41;4875838;29;20408;-67
2023/08/08 01:39:43;;;;;;;2.55;0.82;;;;;;;20.84;61.17;100204.13;4877298;29;20113;-67
2023/08/08 01:42:13;;;;;;;1.83;0.88;;;;;;;20.86;61.22;100202.09;4876906;29;20115;-67
2023/08/08 01:44:42;;;;;;;1.50;0.73;;;;;;;20.85;61.45;100204.97;4876001;29;20147;-66
2023/08/08 01:47:12;;;;;;;1.20;0.60;;;;;;;20.86;61.09;100203.94;4877201;29;20057;-67
2023/08/08 01:49:43;;;;;;;0.70;0.50;;;;;;;20.88;61.08;100206.50;4877270;29;20076;-66
2023/08/08 01:52:11;;;;;;;1.25;0.60;;;;;;;20.87;61.21;100205.66;4876914;29;20440;-67
2023/08/08 01:54:42;;;;;;;1.77;0.55;;;;;;;20.86;61.20;100202.09;4876841;29;20132;-67
2023/08/08 01:57:10;;;;;;;1.58;0.70;;;;;;;20.87;61.18;100202.94;4876760;29;20076;-67
2023/08/08 01:59:40;;;;;;;1.90;0.80;;;;;;;20.86;60.96;100214.78;4877271;29;20466;-66
2023/08/08 02:02:08;;;;;;;3.95;0.73;;;;;;;20.83;61.11;100212.38;4877101;29;20057;-66
2023/08/08 02:04:36;;;;;;;1.48;0.60;;;;;;;20.83;60.79;100212.38;4876802;29;20517;-66
2023/08/08 02:07:05;;;;;;;1.90;0.80;;;;;;;20.80;60.90;100215.41;4876628;29;20049;-67
2023/08/08 02:09:35;;;;;;;1.45;0.82;;;;;;;20.78;60.98;100217.44;4876592;29;20056;-67
2023/08/08 02:12:08;;;;;;;2.00;1.00;;;;;;;20.75;61.18;100220.44;4877108;29;20044;-66
2023/08/08 02:14:37;;;;;;;1.25;0.73;;;;;;;20.76;60.80;100224.88;4876451;29;20097;-66
2023/08/08 02:17:05;;;;;;;1.60;0.60;;;;;;;20.76;60.71;100222.19;4876762;29;20056;-66
2023/08/08 02:19:33;;;;;;;1.20;0.65;;;;;;;20.74;60.82;100218.75;4876991;29;20123;-67
2023/08/08 02:22:02;;;;;;;1.88;0.73;;;;;;;20.72;60.87;100218.06;4876379;29;20060;-65
2023/08/08 02:24:30;;;;;;;2.00;0.80;;;;;;;20.71;60.60;100228.06;4876916;29;20056;-66
2023/08/08 02:26:58;;;;;;;1.05;0.70;;;;;;;20.70;60.54;100230.94;4876651;29;20066;-67
2023/08/08 02:29:28;;;;;;;1.15;0.70;;;;;;;20.69;60.93;100232.78;4876766;29;20071;-66
2023/08/08 02:31:57;;;;;;;1.80;0.70;;;;;;;20.69;61.14;100237.34;4876806;29;20129;-66
2023/08/08 02:34:26;;;;;;;1.38;0.85;;;;;;;20.67;61.01;100237.53;4876415;29;20063;-67
2023/08/08 02:36:54;;;;;;;1.55;0.68;;;;;;;20.68;60.81;100239.22;4876888;29;20049;-66
2023/08/08 02:39:22;;;;;;;1.35;0.77;;;;;;;20.67;60.71;100233.97;4876849;29;20053;-67
2023/08/08 02:41:50;;;;;;;1.48;0.90;;;;;;;20.65;60.65;100238.66;4876784;29;20057;-66
2023/08/08 02:44:19;;;;;;;1.55;0.80;;;;;;;20.64;60.69;100228.84;4876584;29;20140;-66
2023/08/08 02:46:49;;;;;;;1.48;0.77;;;;;;;20.63;60.67;100236.13;4876587;29;20124;-66
2023/08/08 02:49:17;;;;;;;1.02;0.65;;;;;;;20.64;60.99;100228.84;4876137;29;20192;-66
2023/08/08 02:51:45;;;;;;;1.52;0.73;;;;;;;20.62;60.48;100233.56;4876476;29;20064;-66
2023/08/08 02:54:13;;;;;;;1.35;0.80;;;;;;;20.60;60.51;100238.31;4876387;29;20060;-67
2023/08/08 02:56:43;;;;;;;1.63;0.70;;;;;;;20.58;60.62;100250.16;4876243;29;20049;-67
2023/08/08 02:59:11;;;;;;;2.58;0.70;;;;;;;20.54;60.81;100248.75;4876403;29;20053;-66
2023/08/08 03:01:40;;;;;;;1.35;0.68;;;;;;;20.53;60.49;100252.47;4876109;29;20092;-67
2023/08/08 03:04:09;;;;;;;1.20;0.63;;;;;;;20.52;60.77;100256.19;4876739;29;20049;-67
2023/08/08 03:06:38;;;;;;;1.40;0.73;;;;;;;20.52;60.69;100250.75;4876122;29;20048;-66
2023/08/08 03:09:06;;;;;;;1.83;0.70;;;;;;;20.52;60.68;100250.75;4876381;29;20142;-68
2023/08/08 03:11:41;;;;;;;2.80;0.93;;;;;;;20.52;60.58;100248.06;4878501;29;20049;-66
2023/08/08 03:14:09;;;;;;;1.65;0.80;;;;;;;20.52;60.84;100250.75;4879353;29;20147;-66
2023/08/08 03:16:37;;;;;;;1.02;0.57;;;;;;;20.52;60.71;100250.75;4879620;29;20387;-66
2023/08/08 03:19:06;;;;;;;1.17;0.75;;;;;;;20.54;61.19;100259.59;4879341;29;20057;-66
2023/08/08 03:21:35;;;;;;;1.38;0.70;;;;;;;20.54;60.79;100256.88;4879628;29;20507;-66
2023/08/08 03:24:06;;;;;;;1.88;0.73;;;;;;;20.53;60.84;100260.59;4879460;29;20482;-66
2023/08/08 03:26:34;;;;;;;1.23;0.65;;;;;;;20.53;60.90;100268.72;4879417;29;20497;-65
2023/08/08 03:29:02;;;;;;;1.30;0.80;;;;;;;20.55;60.73;100271.28;4879366;29;20522;-66
2023/08/08 03:31:30;;;;;;;2.20;1.00;;;;;;;20.52;60.84;100283.28;4879203;29;20101;-66
2023/08/08 03:33:58;;;;;;;1.55;0.82;;;;;;;20.53;60.90;100270.59;4879312;29;20053;-67
2023/08/08 03:36:26;;;;;;;1.17;0.60;;;;;;;20.54;60.95;100283.97;4879407;29;20053;-66
2023/08/08 03:38:56;;;;;;;2.33;0.90;;;;;;;20.54;60.96;100296.66;4879295;29;20056;-66
2023/08/08 03:41:24;;;;;;;0.95;0.50;;;;;;;20.53;60.95;100287.69;4879035;29;20053;-66
2023/08/08 03:43:52;;;;;;;1.02;0.60;;;;;;;20.55;60.82;100299.22;4879080;29;20423;-66
2023/08/08 03:46:21;;;;;;;1.67;0.77;;;;;;;20.53;61.14;100298.53;4879429;29;20057;-66
2023/08/08 03:48:49;;;;;;;1.67;0.80;;;;;;;20.54;60.69;100300.22;4879063;29;20045;-66
2023/08/08 03:51:21;;;;;;;1.08;0.73;;;;;;;20.51;60.69;100297.84;4878592;29;20064;-66
2023/08/08 03:53:49;;;;;;;2.55;0.63;;;;;;;20.51;60.81;100313.25;4878934;29;20519;-67
2023/08/08 03:56:18;;;;;;;1.15;0.65;;;;;;;20.49;60.72;100315.25;4879023;29;20049;-66
2023/08/08 03:58:47;;;;;;;1.27;0.80;;;;;;;20.48;60.88;100319.84;4878836;29;20081;-67
2023/08/08 04:01:15;;;;;;;0.93;0.60;;;;;;;20.47;60.53;100323.56;4878946;29;20195;-67
2023/08/08 04:03:43;;;;;;;1.55;0.85;;;;;;;20.49;60.88;100326.94;4878412;29;20052;-66
2023/08/08 04:06:11;;;;;;;1.80;0.70;;;;;;;20.49;60.87;100326.09;4878722;29;20049;-65
2023/08/08 04:08:39;;;;;;;1.63;0.85;;;;;;;20.48;60.79;100325.25;4878247;29;20469;-66
2023/08/08 04:11:08;;;;;;;1.48;0.90;;;;;;;20.48;60.72;100330.66;4879097;29;20053;-67
2023/08/08 04:13:37;;;;;;;2.20;1.00;;;;;;;20.47;60.92;100336.25;4878405;29;20075;-67
2023/08/08 04:16:06;;;;;;;1.25;0.75;;;;;;;20.48;60.86;100332.53;4878473;29;20083;-66
2023/08/08 04:18:34;;;;;;;1.52;1.00;;;;;;;20.45;60.62;100330.97;4878375;29;20055;-66
2023/08/08 04:21:02;;;;;;;2.05;0.88;;;;;;;20.47;60.95;100344.38;4878854;29;20061;-66
2023/08/08 04:23:30;;;;;;;1.45;0.82;;;;;;;20.47;60.79;100345.22;4877792;29;20056;-67
2023/08/08 04:25:58;;;;;;;1.33;0.80;;;;;;;20.48;60.71;100351.50;4878322;29;20084;-66
2023/08/08 04:28:26;;;;;;;1.52;0.98;;;;;;;20.49;61.14;100359.47;4878509;29;20053;-67
2023/08/08 04:30:57;;;;;;;1.55;0.68;;;;;;;20.49;61.02;100359.47;4878331;29;20132;-66
2023/08/08 04:33:25;;;;;;;1.60;0.88;;;;;;;20.48;60.89;100360.47;4877936;29;20048;-67
2023/08/08 04:35:53;;;;;;;1.40;0.80;;;;;;;20.50;60.67;100363.03;4877702;29;20048;-66
2023/08/08 04:38:21;;;;;;;1.63;0.77;;;;;;;20.49;60.88;100356.75;4878166;29;20045;-67
2023/08/08 04:40:50;;;;;;;1.58;0.65;;;;;;;20.48;61.03;100355.06;4877987;29;20168;-66
2023/08/08 04:43:19;;;;;;;1.35;0.70;;;;;;;20.52;60.99;100359.16;4877857;29;20053;-66
2023/08/08 04:45:47;;;;;;;1.23;0.70;;;;;;;20.52;60.84;100361.00;4877908;29;20084;-66
2023/08/08 04:48:17;;;;;;;3.53;0.73;;;;;;;20.52;60.75;100359.16;4877779;29;20097;-67
2023/08/08 04:50:47;;;;;;;1.80;1.00;;;;;;;20.51;61.06;100360.16;4877889;29;20052;-66
2023/08/08 04:53:15;;;;;;;1.25;0.90;;;;;;;20.51;60.98;100362.88;4877914;29;20148;-67
2023/08/08 04:55:44;;;;;;;1.58;0.90;;;;;;;20.50;60.78;100363.03;4877387;29;20495;-66
2023/08/08 04:58:12;;;;;;;1.48;0.85;;;;;;;20.48;60.51;100360.47;4876323;29;20052;-66
2023/08/08 05:00:40;;;;;;;1.98;0.90;;;;;;;20.46;60.84;100359.78;4877987;29;20057;-68
2023/08/08 05:03:12;;;;;;;2.13;0.73;;;;;;;20.45;60.37;100363.47;4877790;29;20149;-67
2023/08/08 05:05:45;;;;;;;1.17;0.80;;;;;;;20.49;60.97;100367.59;4877711;29;20057;-67
2023/08/08 05:08:13;;;;;;;;;;;;;;;20.51;60.84;100367.44;4878429;29;20397;-66
2023/08/08 05:10:41;;;;;;;1.30;0.95;;;;;;;20.50;60.74;100366.59;4877828;29;19983;-66
2023/08/08 05:13:11;;;;;;;2.10;0.85;;;;;;;20.52;60.94;100367.28;4878598;29;20431;-67
2023/08/08 05:15:39;;;;;;;1.70;0.95;;;;;;;20.54;60.85;100367.13;4877620;29;20049;-67
2023/08/08 05:18:08;;;;;;;1.20;0.70;;;;;;;20.55;61.25;100364.25;4877432;29;20403;-66
2023/08/08 05:20:36;;;;;;;0.90;0.70;;;;;;;20.56;61.03;100374.13;4877386;29;20052;-66
2023/08/08 05:23:06;;;;;;;1.55;0.88;;;;;;;20.58;61.06;100363.97;4877056;29;20105;-67
2023/08/08 05:25:34;;;;;;;1.35;0.75;;;;;;;20.58;60.66;100372.09;4877171;29;20081;-67
2023/08/08 05:28:02;;;;;;;2.33;1.02;;;;;;;20.61;60.94;100367.38;4877261;29;20049;-67
2023/08/08 05:30:31;;;;;;;1.35;0.73;;;;;;;20.60;61.03;100371.09;4877278;29;20049;-66
2023/08/08 05:32:59;;;;;;;2.03;0.70;;;;;;;20.64;61.02;100372.47;4876786;29;20053;-67
2023/08/08 05:35:30;;;;;;;2.35;0.95;;;;;;;20.64;60.97;100372.47;4875560;29;20084;-66
2023/08/08 05:37:58;;;;;;;2.05;1.10;;;;;;;20.66;61.14;100382.19;4875774;29;20049;-67
2023/08/08 05:40:27;;;;;;;1.52;0.80;;;;;;;20.66;60.83;100379.47;4877061;29;20061;-66
2023/08/08 05:42:55;;;;;;;1.05;0.80;;;;;;;20.67;61.03;100378.44;4876783;29;20049;-67
2023/08/08 05:45:24;;;;;;;0.93;0.65;;;;;;;20.67;61.01;100383.88;4877038;29;20064;-68
2023/08/08 05:47:54;;;;;;;2.28;0.90;;;;;;;20.67;61.22;100375.75;4876858;29;20048;-68
2023/08/08 05:50:23;;;;;;;4.88;1.27;;;;;;;20.70;61.11;100388.13;4876836;29;20625;-68
2023/08/08 05:52:52;;;;;;;2.30;1.17;;;;;;;20.69;61.53;100381.84;4877003;29;20061;-66
2023/08/08 05:55:20;;;;;;;3.55;1.15;;;;;;;20.70;62.09;100386.25;4876868;29;20063;-67
2023/08/08 05:57:50;;;;;;;2.58;1.20;;;;;;;20.71;62.09;100387.13;4876714;29;20057;-68
2023/08/08 06:00:19;;;;;;;2.45;1.10;;;;;;;20.70;61.73;100390.84;4876873;29;20068;-67
2023/08/08 06:02:47;;;;;;;3.40;1.02;;;;;;;20.71;61.47;100392.53;4876825;29;20482;-68
2023/08/08 06:05:17;;;;;;;2.28;1.10;;;;;;;20.71;61.85;100387.97;4876939;29;20049;-67
2023/08/08 06:07:46;;;;;;;3.60;1.00;;;;;;;20.73;61.70;100393.22;4877066;29;20437;-67
2023/08/08 06:10:14;;;;;;;2.42;1.08;;;;;;;20.73;61.50;100387.81;4876587;29;20145;-66
2023/08/08 06:12:42;;;;;;;5.15;1.30;;;;;;;20.74;61.71;100400.34;4875221;29;20064;-67
2023/08/08 06:15:14;;;;;;;5.78;1.40;;;;;;;20.72;61.61;100391.53;4875999;29;20049;-67
2023/08/08 06:17:42;;;;;;;2.92;1.17;;;;;;;20.71;61.58;100395.25;4875918;29;20092;-68
2023/08/08 06:20:11;;;;;;;2.47;1.10;;;;;;;20.72;61.47;100407.78;4876038;29;20511;-67
2023/08/08 06:22:39;;;;;;;2.28;1.00;;;;;;;20.71;61.64;100398.81;4875927;29;20109;-67
2023/08/08 06:25:08;;;;;;;1.85;0.90;;;;;;;20.73;61.50;100404.06;4876133;29;20049;-68
2023/08/08 06:27:37;;;;;;;2.55;0.98;;;;;;;20.74;61.92;100405.78;4876733;29;20101;-66
2023/08/08 06:30:08;;;;;;;4.32;1.20;;;;;;;20.75;62.06;100402.94;4877015;29;20117;-66
2023/08/08 06:32:37;;;;;;;3.42;1.30;;;;;;;20.79;62.08;100400.75;4876604;29;20060;-66
2023/08/08 06:35:06;;;;;;;2.55;1.13;;;;;;;20.80;62.08;100405.16;4876634;29;20143;-66
2023/08/08 06:37:36;;;;;;;3.47;1.13;;;;;;;20.81;61.70;100402.28;4876717;29;20067;-68
2023/08/08 06:40:07;;;;;;;2.83;1.00;;;;;;;20.81;61.75;100409.56;4876816;29;20057;-68
2023/08/08 06:42:36;;;;;;;4.57;1.15;;;;;;;20.83;61.43;100405.69;4876659;29;20095;-69
2023/08/08 06:45:05;;;;;;;2.05;1.10;;;;;;;20.84;61.37;100409.25;4878737;29;20056;-68
2023/08/08 06:47:34;;;;;;;2.80;1.15;;;;;;;20.84;61.00;100412.84;4880118;29;20059;-68
2023/08/08 06:50:05;;;;;;;2.80;1.05;;;;;;;20.85;61.02;100416.41;4880158;29;20049;-70
2023/08/08 06:52:33;;;;;;;4.53;1.30;;;;;;;20.83;60.88;100418.41;4879556;29;20507;-67
2023/08/08 06:55:01;;;;;;;3.42;1.15;;;;;;;20.83;61.18;100426.53;4880256;29;20056;-67
2023/08/08 06:57:33;;;;;;;3.30;1.48;;;;;;;20.84;60.87;100433.66;4880411;29;20132;-67
2023/08/08 07:00:04;;;;;;;7.20;1.50;;;;;;;20.83;61.10;100431.97;4880028;29;20171;-68
2023/08/08 07:02:34;;;;;;;;;;;;;;;20.84;61.09;100428.22;4880624;29;20053;-68
2023/08/08 07:05:06;;;;;;;3.72;1.30;;;;;;;20.84;61.03;100426.41;4880325;29;19924;-67
2023/08/08 07:07:35;;;;;;;3.28;1.30;;;;;;;20.86;61.22;100415.41;4880077;29;20065;-67
2023/08/08 07:10:06;;;;;;;11.25;2.00;;;;;;;20.89;61.16;100417.78;4880569;29;20057;-68
2023/08/08 07:12:34;;;;;;;7.22;3.90;;;;;;;20.90;61.27;100419.50;4880153;29;20414;-69
2023/08/08 07:15:02;;;;;;;14.23;4.50;;;;;;;20.92;61.51;100422.91;4880269;29;20057;-68
2023/08/08 07:17:30;;;;;;;11.20;4.20;;;;;;;20.95;61.43;100425.31;4879868;29;20071;-68
2023/08/08 07:19:59;;;;;;;12.98;3.65;;;;;;;20.96;61.47;100418.88;4879632;29;20049;-68
2023/08/08 07:22:29;;;;;;;11.93;3.72;;;;;;;20.97;61.27;100419.75;4879621;29;20144;-68
2023/08/08 07:24:58;;;;;;;14.27;3.72;;;;;;;20.99;61.60;100421.28;4879567;29;20055;-67
2023/08/08 07:27:27;;;;;;;12.32;3.20;;;;;;;21.00;61.52;100422.97;4879423;29;20053;-68
2023/08/08 07:29:56;;;;;;;11.85;3.10;;;;;;;21.02;61.25;100420.97;4879451;29;20567;-68
2023/08/08 07:32:24;;;;;;;11.63;2.85;;;;;;;21.00;61.40;100416.72;4879486;29;20091;-69
2023/08/08 07:34:55;;;;;;;10.80;3.08;;;;;;;21.04;61.48;100423.53;4879626;29;20085;-69
2023/08/08 07:37:23;;;;;;;10.27;2.65;;;;;;;21.05;61.42;100420.66;4879449;29;20584;-68
2023/08/08 07:39:53;;;;;;;8.35;2.40;;;;;;;21.06;61.38;100427.78;4879060;29;20415;-69
2023/08/08 07:42:21;;;;;;;12.40;3.17;;;;;;;21.08;61.30;100430.34;4879467;29;20518;-68
2023/08/08 07:44:49;;;;;;;10.18;2.83;;;;;;;21.11;61.46;100432.75;4879750;29;20423;-68
2023/08/08 07:47:18;;;;;;;11.40;2.60;;;;;;;21.11;61.70;100433.59;4879290;29;20049;-67
2023/08/08 07:49:47;;;;;;;9.68;2.67;;;;;;;21.11;60.97;100433.59;4877772;29;20448;-68
2023/08/08 07:52:15;;;;;;;8.77;2.70;;;;;;;21.14;61.53;100438.72;4876835;29;20089;-68
2023/08/08 07:54:44;;;;;;;10.48;2.80;;;;;;;21.14;60.89;100441.44;4877511;29;20080;-67
2023/08/08 07:57:16;;;;;;;9.43;2.53;;;;;;;21.13;60.89;100434.31;4877778;29;20055;-68
2023/08/08 07:59:44;;;;;;;8.02;2.30;;;;;;;21.15;61.10;100436.88;4877862;29;20049;-67
2023/08/08 08:02:12;;;;;;;5.90;2.33;;;;;;;21.16;61.10;100438.56;4878365;29;20053;-67
2023/08/08 08:04:40;;;;;;;8.52;2.33;;;;;;;21.17;60.89;100437.56;4878032;29;20479;-69
2023/08/08 08:07:10;;;;;;;6.18;1.90;;;;;;;21.20;60.85;100439.09;4878582;29;20056;-69
2023/08/08 08:09:38;;;;;;;8.05;2.20;;;;;;;21.19;60.88;100432.81;4878460;29;20083;-68
2023/08/08 08:12:06;;;;;;;8.93;2.60;;;;;;;21.20;60.76;100426.38;4878766;29;20113;-68
2023/08/08 08:14:36;;;;;;;8.55;2.33;;;;;;;21.22;60.68;100434.34;4878475;29;20049;-67
2023/08/08 08:17:04;;;;;;;6.30;2.40;;;;;;;21.23;60.84;100438.78;4878503;29;20088;-69
2023/08/08 08:19:33;;;;;;;8.23;2.22;;;;;;;21.24;60.74;100432.38;4878311;29;20049;-68
2023/08/08 08:22:01;;;;;;;6.65;2.30;;;;;;;21.26;60.67;100435.75;4878099;29;20063;-69
2023/08/08 08:24:30;;;;;;;7.32;2.03;;;;;;;21.27;60.49;100445.63;4878449;29;20045;-68
2023/08/08 08:26:58;;;;;;;5.53;2.20;;;;;;;21.29;60.56;100438.19;4878211;29;20049;-68
2023/08/08 08:29:27;;;;;;;6.32;2.17;;;;;;;21.30;60.49;100437.19;4878447;29;20060;-69
2023/08/08 08:31:56;;;;;;;6.03;2.20;;;;;;;21.31;60.38;100444.31;4878531;29;20296;-68
2023/08/08 08:34:26;;;;;;;5.68;2.22;;;;;;;21.33;60.77;100450.44;4878321;29;20080;-69
2023/08/08 08:36:55;;;;;;;7.97;2.15;;;;;;;21.34;60.56;100444.00;4878257;29;20173;-68
2023/08/08 08:39:24;;;;;;;5.68;2.08;;;;;;;21.36;60.78;100444.69;4878285;29;20543;-68
2023/08/08 08:42:01;;;;;;;6.90;2.30;;;;;;;21.38;60.19;100454.38;4878223;29;20064;-67
2023/08/08 08:44:33;;;;;;;7.32;2.33;;;;;;;21.39;60.40;100445.22;4878076;29;20192;-68
2023/08/08 08:47:03;;;;;;;6.65;2.13;;;;;;;21.41;60.33;100443.19;4877606;29;20488;-69
2023/08/08 08:49:32;;;;;;;5.72;1.80;;;;;;;21.42;59.99;100441.34;4878046;29;20227;-67
2023/08/08 08:52:01;;;;;;;4.57;1.95;;;;;;;21.42;59.59;100444.06;4876861;29;20057;-69
2023/08/08 08:54:30;;;;;;;5.15;1.83;;;;;;;21.44;59.54;100444.78;4877677;29;20057;-68
2023/08/08 08:57:02;;;;;;;6.50;2.20;;;;;;;21.46;59.12;100445.47;4877769;29;20045;-69
2023/08/08 08:59:30;;;;;;;4.82;1.80;;;;;;;21.47;59.24;100441.72;4877971;29;20419;-69
2023/08/08 09:01:59;;;;;;;4.95;1.92;;;;;;;21.48;59.44;100448.00;4877694;29;20477;-68
2023/08/08 09:04:31;;;;;;;5.85;1.77;;;;;;;21.50;59.24;100440.56;4877430;29;20487;-69
2023/08/08 09:07:00;;;;;;;5.57;1.90;;;;;;;21.49;59.19;100439.69;4877668;29;20049;-69
2023/08/08 09:09:33;;;;;;;5.05;1.80;;;;;;;21.51;58.87;100451.25;4876872;29;20049;-69
2023/08/08 09:12:04;;;;;;;4.83;1.87;;;;;;;21.52;59.27;100450.25;4877252;29;20075;-68
2023/08/08 09:14:33;;;;;;;4.75;2.13;;;;;;;21.52;59.28;100455.69;4877689;29;20072;-69
2023/08/08 09:17:02;;;;;;;4.82;1.85;;;;;;;21.55;58.86;100460.78;4877232;29;20053;-69
2023/08/08 09:19:32;;;;;;;4.07;1.70;;;;;;;21.57;58.65;100469.63;4877197;29;20132;-68
2023/08/08 09:22:00;;;;;;;6.60;2.05;;;;;;;21.58;58.72;100460.47;4877018;29;20063;-68
2023/08/08 09:24:29;;;;;;;5.00;1.77;;;;;;;21.58;58.66;100454.19;4877076;29;20424;-68
2023/08/08 09:26:57;;;;;;;4.88;1.80;;;;;;;21.60;58.52;100463.88;4877356;29;20070;-69
2023/08/08 09:29:25;;;;;;;5.28;1.88;;;;;;;21.62;58.68;100464.59;4877317;29;20105;-68
2023/08/08 09:31:56;;;;;;;4.50;1.83;;;;;;;21.61;58.55;100460.13;4877169;29;20412;-68
2023/08/08 09:34:26;;;;;;;4.30;1.90;;;;;;;21.63;58.52;100466.28;4877429;29;20053;-69
2023/08/08 09:36:58;;;;;;;4.63;1.90;;;;;;;21.65;58.28;100469.69;4877040;29;20060;-69
2023/08/08 09:39:31;;;;;;;4.82;2.00;;;;;;;21.66;58.12;100460.53;4877233;29;20135;-68
2023/08/08 09:42:00;;;;;;;4.22;1.98;;;;;;;21.69;58.38;100454.78;4876706;29;20049;-69
2023/08/08 09:44:29;;;;;;;4.40;1.75;;;;;;;21.69;58.27;100460.19;4876891;29;20052;-69
2023/08/08 09:46:57;;;;;;;6.47;2.05;;;;;;;21.71;58.10;100463.63;4876717;29;20056;-69
2023/08/08 09:49:26;;;;;;;4.40;1.90;;;;;;;21.71;58.12;100447.34;4876555;29;20116;-68
2023/08/08 09:51:56;;;;;;;3.80;1.67;;;;;;;;;;4876818;29;20089;-68
2023/08/08 09:54:26;;;;;;;5.07;1.70;;;;;;;21.78;58.26;100460.25;4876961;29;20060;-68
2023/08/08 09:56:55;;;;;;;3.92;1.75;;;;;;;21.79;58.12;100459.25;4876789;29;20072;-69
2023/08/08 09:59:24;;;;;;;3.92;1.52;;;;;;;21.79;57.83;100446.53;4876796;29;20109;-68
2023/08/08 10:01:54;;;;;;;3.63;1.75;;;;;;;21.82;58.00;100456.25;4876683;29;20061;-68
2023/08/08 10:04:24;;;;;;;4.13;1.60;;;;;;;21.83;58.49;100457.94;4876757;29;20049;-68
2023/08/08 10:06:53;;;;;;;3.30;1.70;;;;;;;21.86;58.18;100457.59;4876474;29;20160;-68
2023/08/08 10:09:23;;;;;;;3.70;1.42;;;;;;;21.86;57.75;100450.31;4876543;29;20045;-68
2023/08/08 10:11:52;;;;;;;3.95;1.70;;;;;;;21.89;57.82;100449.13;4876456;29;20055;-69
2023/08/08 10:14:21;;;;;;;4.35;1.70;;;;;;;21.89;58.23;100443.69;4876568;29;20193;-68
2023/08/08 10:16:51;;;;;;;2.83;1.42;;;;;;;21.93;58.66;100447.81;4875316;29;20075;-68
2023/08/08 10:19:23;;;;;;;5.30;1.92;;;;;;;21.95;58.49;100445.78;4876313;29;20053;-68
2023/08/08 10:21:58;;;;;;;4.18;1.63;;;;;;;21.97;58.66;100438.31;4879676;29;20156;-68
2023/08/08 10:24:34;;;;;;;4.43;1.60;;;;;;;21.98;58.25;100434.59;4880429;29;20055;-68
2023/08/08 10:27:04;;;;;;;5.03;1.83;;;;;;;22.01;58.43;100434.28;4879984;29;20439;-68
2023/08/08 10:29:33;;;;;;;4.80;1.50;;;;;;;22.03;57.97;100429.53;4880209;29;20419;-68
2023/08/08 10:32:05;;;;;;;3.40;1.63;;;;;;;22.04;58.16;100412.22;4880244;29;20414;-68
2023/08/08 10:34:41;;;;;;;3.20;1.40;;;;;;;22.07;57.97;100417.34;4880463;29;20045;-68
2023/08/08 10:37:12;;;;;;;3.63;1.70;;;;;;;22.10;57.87;100417.06;4879951;29;20139;-68
2023/08/08 10:39:52;;;;;;;2.83;1.60;;;;;;;22.13;57.58;100424.88;4879785;29;20063;-68
2023/08/08 10:42:23;;;;;;;3.97;1.50;;;;;;;22.15;57.50;100413.84;4879843;29;20053;-68
2023/08/08 10:44:53;;;;;;;3.78;1.42;;;;;;;22.18;57.44;100419.78;4880034;29;20417;-68
2023/08/08 10:47:23;;;;;;;3.42;1.70;;;;;;;22.20;57.35;100423.22;4879912;29;20057;-67
2023/08/08 10:49:59;;;;;;;3.83;1.45;;;;;;;22.24;57.42;100423.72;4879750;29;20053;-68
2023/08/08 10:52:27;;;;;;;3.95;1.48;;;;;;;22.25;57.44;100407.25;4879700;29;20425;-68
2023/08/08 10:54:57;;;;;;;3.55;1.50;;;;;;;22.28;57.69;100409.63;4880029;29;20124;-68
2023/08/08 10:57:26;;;;;;;3.08;1.52;;;;;;;22.31;57.36;100404.91;4879799;29;20104;-68
2023/08/08 10:59:54;;;;;;;4.45;1.48;;;;;;;22.34;57.04;100418.16;4879784;29;20104;-69
2023/08/08 11:02:23;;;;;;;3.22;1.70;;;;;;;22.36;56.68;100407.97;4879440;29;20049;-69
2023/08/08 11:04:52;;;;;;;2.97;1.20;;;;;;;22.37;56.46;100406.94;4879359;29;20048;-69
2023/08/08 11:07:21;;;;;;;2.60;1.52;;;;;;;22.39;56.85;100400.34;4879669;29;20132;-68
2023/08/08 11:09:50;;;;;;;3.00;1.52;;;;;;;22.43;56.61;100403.59;4879326;29;20052;-68
2023/08/08 11:12:20;;;;;;;3.65;1.80;;;;;;;22.44;56.16;100405.28;4879462;29;20061;-68
2023/08/08 11:14:49;;;;;;;2.95;1.50;;;;;;;22.47;56.10;100407.66;4879258;29;20057;-67
2023/08/08 11:17:17;;;;;;;2.35;1.23;;;;;;;22.51;56.01;100406.34;4879119;29;20064;-68
2023/08/08 11:19:45;;;;;;;3.63;1.48;;;;;;;22.52;56.25;100410.75;4879531;29;20053;-68
2023/08/08 11:22:14;;;;;;;3.40;1.60;;;;;;;22.53;56.13;100405.16;4879146;29;20132;-67
2023/08/08 11:24:42;;;;;;;2.80;1.42;;;;;;;22.57;55.96;100409.22;4879228;29;20082;-68
2023/08/08 11:27:10;;;;;;;2.88;1.60;;;;;;;22.60;56.34;100402.63;4879227;29;20155;-68
2023/08/08 11:29:40;;;;;;;2.78;1.48;;;;;;;22.61;56.55;100403.47;4879002;29;20057;-68
2023/08/08 11:32:09;;;;;;;3.47;1.52;;;;;;;22.64;56.15;100409.41;4878502;29;20094;-67
2023/08/08 11:34:38;;;;;;;2.50;1.38;;;;;;;22.70;55.54;100406.03;4879103;29;20053;-67
2023/08/08 11:37:06;;;;;;;2.60;1.30;;;;;;;22.72;54.74;100411.31;4879003;29;20045;-68